Minneapolis, Minnesota
Traffic Map
Current Weather Conditions
Minneapolis, Minnesota
Clear
Clear
47°
Feels Like: 44°
Wind Chill: 44° Ceiling: Unl
Heat Index: 47° Visibility: 10mi
Dew Point: 41° Wind: 7mph
Humidity: 80% Direction: 310° (NW)
Pressure: 29.97in Gusts: 0mph
Raw Report DataKMSP 201253Z 31006KT 10SM CLR 08/05 A2997 RMK AO2 SLP149 T00830050
Traffic Incident Summary
Active as of:
Severity:
Category:
InformationThere was an issue retrieving the traffic information for this location. Please try a different location or try again shortly.
Advertisements
Track Severe Weather on mobile